Terminal Aerodrome Forecast
Issued by NWS State College, PA

Home | Current Version | Previous Version | Text Only | Print | Product List | Glossary On
Versions: 1 2 3 4 5 6 7 8 9 10 11 12 13 14 15 16 17 18 19 20 21 22 23 24 25 26 27 28 29 30 31 32
000
FTUS41 KCTP 231128
TAFIPT
TAF
KIPT 231128Z 2312/2412 09012G22KT P6SM VCSH BKN015 OVC025
     FM231300 07012G22KT 3SM -RA BR OVC007 WS020/07035KT
     FM232100 05012G20KT 2SM -RASN BR OVC005
     FM241000 01012G22KT 1SM -SN BR OVC004=

USA.gov is the U.S. government's official web portal to all federal, state and local government web resources and services.